createdAt,value
2023-04-17T00:00:19.802Z,96781.52
2023-04-17T00:03:07.947Z,96778.52
2023-04-17T00:05:36.322Z,96776.81
2023-04-17T00:08:04.670Z,96781.07
2023-04-17T00:10:32.882Z,96777.70
2023-04-17T00:13:00.959Z,96775.01
2023-04-17T00:15:29.142Z,96773.00
2023-04-17T00:17:57.272Z,96772.70
2023-04-17T00:20:25.609Z,96773.27
2023-04-17T00:22:53.674Z,96772.97
2023-04-17T00:25:21.856Z,96767.23
2023-04-17T00:27:50.673Z,96770.59
2023-04-17T00:30:18.714Z,96768.48
2023-04-17T00:32:46.938Z,96766.46
2023-04-17T00:35:15.218Z,96766.54
2023-04-17T00:37:43.265Z,96767.10
2023-04-17T00:40:11.953Z,96766.30
2023-04-17T00:42:40.950Z,96763.63
2023-04-17T00:45:11.102Z,96766.08
2023-04-17T00:47:40.132Z,96762.88
2023-04-17T00:50:08.768Z,96762.02
2023-04-17T00:52:36.940Z,96763.68
2023-04-17T00:55:05.324Z,96759.38
2023-04-17T00:57:34.316Z,96764.97
2023-04-17T01:00:02.632Z,96764.67
2023-04-17T01:02:31.302Z,96764.60
2023-04-17T01:04:59.471Z,96764.27
2023-04-17T01:07:29.905Z,96762.73
2023-04-17T01:09:59.332Z,96763.52
2023-04-17T01:12:27.581Z,96764.83
2023-04-17T01:14:56.697Z,96760.93
2023-04-17T01:17:26.509Z,96756.64
2023-04-17T01:19:54.889Z,96755.38
2023-04-17T01:22:22.959Z,96755.95
2023-04-17T01:24:52.987Z,96752.70
2023-04-17T01:27:22.787Z,96749.11
2023-04-17T01:29:51.061Z,96747.74
2023-04-17T01:32:20.127Z,96744.51
2023-04-17T01:34:48.679Z,96743.87
2023-04-17T01:37:17.062Z,96741.98
2023-04-17T01:39:45.127Z,96740.52
2023-04-17T01:42:14.225Z,96739.39
2023-04-17T01:44:42.607Z,96733.58
2023-04-17T01:47:11.410Z,96733.43
2023-04-17T01:49:39.585Z,96733.45
2023-04-17T01:52:07.652Z,96732.63
2023-04-17T01:54:36.115Z,96733.89
2023-04-17T01:57:04.418Z,96732.23
2023-04-17T01:59:32.601Z,96728.48
2023-04-17T02:02:01.061Z,96733.02
2023-04-17T02:04:29.673Z,96733.59
2023-04-17T02:06:57.961Z,96731.09
2023-04-17T02:09:25.945Z,96733.72
2023-04-17T02:11:54.005Z,96730.82
2023-04-17T02:14:21.983Z,96730.86
2023-04-17T02:16:50.974Z,96735.03
2023-04-17T02:19:19.261Z,96735.29
2023-04-17T02:21:47.338Z,96736.98
2023-04-17T02:24:15.430Z,96737.40
2023-04-17T02:26:43.487Z,96737.54
2023-04-17T02:29:14.208Z,96736.04
2023-04-17T02:31:43.362Z,96737.23
2023-04-17T02:34:12.855Z,96734.32
2023-04-17T02:36:41.734Z,96735.48
2023-04-17T02:39:10.055Z,96735.98
2023-04-17T02:41:40.600Z,96734.20
2023-04-17T02:44:09.741Z,96733.98
2023-04-17T02:46:37.819Z,96735.02
2023-04-17T02:49:06.211Z,96732.45
2023-04-17T02:51:34.491Z,96735.54
2023-04-17T02:54:02.459Z,96736.18
2023-04-17T02:56:30.761Z,96735.74
2023-04-17T02:58:58.930Z,96738.70
2023-04-17T03:01:28.013Z,96736.29
2023-04-17T03:03:57.041Z,96738.75
2023-04-17T03:06:26.944Z,96739.70
2023-04-17T03:08:56.061Z,96737.89
2023-04-17T03:11:24.118Z,96738.48
2023-04-17T03:13:52.417Z,96735.64
2023-04-17T03:16:20.613Z,96735.41
2023-04-17T03:18:49.263Z,96734.80
2023-04-17T03:21:17.451Z,96739.59
2023-04-17T03:23:45.536Z,96743.52
2023-04-17T03:26:14.423Z,96742.24
2023-04-17T03:28:43.216Z,96741.69
2023-04-17T03:31:11.190Z,96743.06
2023-04-17T03:33:39.573Z,96741.02
2023-04-17T03:36:07.855Z,96746.20
2023-04-17T03:38:37.164Z,96743.23
2023-04-17T03:41:06.156Z,96742.89
2023-04-17T03:43:34.224Z,96743.91
2023-04-17T03:46:02.478Z,96747.86
2023-04-17T03:48:31.511Z,96745.96
2023-04-17T03:50:59.602Z,96750.15
2023-04-17T03:53:31.067Z,96749.83
2023-04-17T03:56:00.742Z,96752.73
2023-04-17T03:58:33.939Z,96751.70
2023-04-17T04:01:02.430Z,96756.00
2023-04-17T04:03:33.516Z,96759.80
2023-04-17T04:06:01.770Z,96761.86
2023-04-17T04:08:29.927Z,96763.60
2023-04-17T04:10:58.243Z,96763.63
2023-04-17T04:13:34.477Z,96763.50
2023-04-17T04:16:03.404Z,96765.58
2023-04-17T04:18:32.053Z,96763.73
2023-04-17T04:21:00.231Z,96763.23
2023-04-17T04:23:33.941Z,96763.40
2023-04-17T04:26:02.113Z,96766.18
2023-04-17T04:28:39.447Z,96766.86
2023-04-17T04:31:11.103Z,96771.87
2023-04-17T04:33:41.183Z,96772.25
2023-04-17T04:36:09.371Z,96775.02
2023-04-17T04:38:38.126Z,96776.91
2023-04-17T04:41:15.135Z,96776.91
2023-04-17T04:43:44.254Z,96777.05
2023-04-17T04:46:12.982Z,96777.61
2023-04-17T04:48:44.897Z,96780.85
2023-04-17T04:51:13.999Z,96782.34
2023-04-17T04:53:42.276Z,96783.73
2023-04-17T04:56:11.884Z,96784.05
2023-04-17T04:58:41.395Z,96786.63
2023-04-17T05:01:11.019Z,96788.73
2023-04-17T05:03:42.503Z,96787.88
2023-04-17T05:06:11.568Z,96790.15
2023-04-17T05:08:45.179Z,96790.34
2023-04-17T05:11:15.563Z,96790.89
2023-04-17T05:13:43.979Z,96790.54
2023-04-17T05:16:19.583Z,96790.86
2023-04-17T05:18:48.383Z,96789.30
2023-04-17T05:21:19.892Z,96789.97
2023-04-17T05:23:50.942Z,96790.92
2023-04-17T05:26:22.177Z,96787.08
2023-04-17T05:28:50.732Z,96785.22
2023-04-17T05:31:22.931Z,96785.89
2023-04-17T05:33:52.132Z,96781.63
2023-04-17T05:36:20.406Z,96782.54
2023-04-17T05:38:49.007Z,96779.39
2023-04-17T05:41:17.092Z,96782.06
2023-04-17T05:43:45.462Z,96785.52
2023-04-17T05:46:13.907Z,96787.79
2023-04-17T05:48:44.368Z,96792.65
2023-04-17T05:51:12.969Z,96795.75
2023-04-17T05:53:41.446Z,96795.35
2023-04-17T05:56:11.568Z,96796.34
2023-04-17T05:58:40.156Z,96800.26
2023-04-17T06:01:08.844Z,96798.98
2023-04-17T06:03:37.820Z,96798.70
2023-04-17T06:06:12.900Z,96799.47
2023-04-17T06:08:41.170Z,96799.74
2023-04-17T06:11:09.162Z,96798.10
2023-04-17T06:13:37.628Z,96801.08
2023-04-17T06:16:06.312Z,96801.09
2023-04-17T06:18:34.393Z,96797.55
2023-04-17T06:21:02.596Z,96799.81
2023-04-17T06:23:31.364Z,96799.61
2023-04-17T06:25:59.395Z,96803.09
2023-04-17T06:28:27.428Z,96801.39
2023-04-17T06:30:56.234Z,96806.73
2023-04-17T06:33:26.762Z,96807.27
2023-04-17T06:35:55.433Z,96809.38
2023-04-17T06:38:56.257Z,96809.13
2023-04-17T06:41:24.536Z,96810.31
2023-04-17T06:43:54.883Z,96812.50
2023-04-17T06:46:23.344Z,96811.08
2023-04-17T06:48:52.456Z,96806.39
2023-04-17T06:51:21.341Z,96810.77
2023-04-17T06:53:49.425Z,96812.95
2023-04-17T06:56:17.493Z,96810.82
2023-04-17T06:58:45.982Z,96809.59
2023-04-17T07:01:14.234Z,96813.47
2023-04-17T07:03:43.543Z,96813.13
2023-04-17T07:06:11.856Z,96815.98
2023-04-17T07:08:40.146Z,96816.48
2023-04-17T07:11:08.418Z,96817.20
2023-04-17T07:13:36.690Z,96817.69
2023-04-17T07:16:06.450Z,96819.70
2023-04-17T07:18:34.788Z,96822.55
2023-04-17T07:21:03.378Z,96824.90
2023-04-17T07:23:31.551Z,96829.48
2023-04-17T07:25:59.844Z,96831.27
2023-04-17T07:28:27.860Z,96830.66
2023-04-17T07:30:58.291Z,96829.54
2023-04-17T07:33:26.761Z,96830.65
2023-04-17T07:35:55.007Z,96832.50
2023-04-17T07:38:23.186Z,96833.78
2023-04-17T07:40:51.463Z,96831.15
2023-04-17T07:43:19.439Z,96833.13
2023-04-17T07:45:49.054Z,96830.77
2023-04-17T07:48:17.825Z,96831.20
2023-04-17T07:50:45.943Z,96832.59
2023-04-17T07:53:13.999Z,96833.91
2023-04-17T07:55:41.972Z,96833.42
2023-04-17T07:58:11.523Z,96834.94
2023-04-17T08:00:39.859Z,96832.20
2023-04-17T08:03:08.218Z,96829.80
2023-04-17T08:05:36.327Z,96834.65
2023-04-17T08:08:04.809Z,96833.35
2023-04-17T08:10:32.892Z,96834.39
2023-04-17T08:13:02.005Z,96833.20
2023-04-17T08:15:30.160Z,96838.73
2023-04-17T08:17:58.762Z,96833.91
2023-04-17T08:20:27.544Z,96839.79
2023-04-17T08:22:56.236Z,96841.02
2023-04-17T08:25:24.574Z,96839.62
2023-04-17T08:27:52.954Z,96842.20
2023-04-17T08:30:21.073Z,96843.42
2023-04-17T08:32:50.392Z,96840.98
2023-04-17T08:35:18.663Z,96839.91
2023-04-17T08:37:47.052Z,96844.94
2023-04-17T08:40:17.177Z,96845.63
2023-04-17T08:42:48.047Z,96845.94
2023-04-17T08:45:17.566Z,96842.09
2023-04-17T08:47:45.758Z,96842.58
2023-04-17T08:50:23.715Z,96842.94
2023-04-17T08:52:52.957Z,96844.13
2023-04-17T08:55:23.854Z,96845.85
2023-04-17T08:57:59.126Z,96843.95
2023-04-17T09:00:31.866Z,96848.23
2023-04-17T09:03:01.557Z,96848.19
2023-04-17T09:05:33.481Z,96847.66
2023-04-17T09:08:21.001Z,96844.73
2023-04-17T09:10:50.271Z,96843.63
2023-04-17T09:13:19.163Z,96842.08
2023-04-17T09:15:48.637Z,96836.36
2023-04-17T09:18:27.104Z,96835.80
2023-04-17T09:20:55.267Z,96838.53
2023-04-17T09:23:23.753Z,96833.16
2023-04-17T09:26:11.375Z,96829.35
2023-04-17T09:28:40.078Z,96826.02
2023-04-17T09:31:17.276Z,96827.52
2023-04-17T09:34:05.893Z,96828.71
2023-04-17T09:36:35.409Z,96825.46
2023-04-17T09:39:04.610Z,96821.79
2023-04-17T09:41:34.557Z,96819.80
2023-04-17T09:44:05.642Z,96821.67
2023-04-17T09:46:42.981Z,96825.55
2023-04-17T09:49:18.964Z,96822.51
2023-04-17T09:51:47.201Z,96821.73
2023-04-17T09:54:16.399Z,96821.30
2023-04-17T09:56:44.580Z,96817.05
2023-04-17T09:59:12.555Z,96816.48
2023-04-17T10:01:41.144Z,96815.03
2023-04-17T10:04:09.677Z,96817.55
2023-04-17T10:06:38.108Z,96813.48
2023-04-17T10:09:06.236Z,96812.43
2023-04-17T10:11:36.740Z,96813.91
2023-04-17T10:14:11.834Z,96807.04
2023-04-17T10:16:41.711Z,96806.42
2023-04-17T10:19:31.232Z,96803.73
2023-04-17T10:22:18.237Z,96798.67
2023-04-17T10:24:51.997Z,96799.11
2023-04-17T10:27:26.475Z,96799.10
2023-04-17T10:29:55.682Z,96794.41
2023-04-17T10:32:25.933Z,96788.62
2023-04-17T10:34:59.819Z,96776.65
2023-04-17T10:37:59.925Z,96781.75
2023-04-17T10:40:32.196Z,96788.36
2023-04-17T10:43:26.459Z,96782.01
2023-04-17T10:46:00.393Z,96780.54
2023-04-17T10:48:36.603Z,96781.12
2023-04-17T10:51:29.394Z,96780.10
2023-04-17T10:54:01.540Z,96778.88
2023-04-17T10:56:35.611Z,96775.78
2023-04-17T10:59:04.973Z,96772.89
2023-04-17T11:01:48.635Z,96764.62
2023-04-17T11:04:34.870Z,96769.83
2023-04-17T11:07:03.396Z,96767.95
2023-04-17T11:09:31.550Z,96765.47
2023-04-17T11:12:02.162Z,96761.81
2023-04-17T11:14:30.890Z,96762.96
2023-04-17T11:16:59.016Z,96759.46
2023-04-17T11:19:27.260Z,96758.88
2023-04-17T11:22:01.487Z,96756.28
2023-04-17T11:24:30.466Z,96755.05
2023-04-17T11:27:03.969Z,96749.36
2023-04-17T11:29:32.440Z,96741.35
2023-04-17T11:32:01.489Z,96736.45
2023-04-17T11:34:30.440Z,96732.48
2023-04-17T11:36:59.950Z,96731.19
2023-04-17T11:39:32.327Z,96730.66
2023-04-17T11:42:02.466Z,96725.08
2023-04-17T11:44:30.509Z,96721.67
2023-04-17T11:47:01.776Z,96721.06
2023-04-17T11:49:31.073Z,96719.27
2023-04-17T11:52:00.244Z,96722.45
2023-04-17T11:54:29.535Z,96718.46
2023-04-17T11:57:05.840Z,96713.64
2023-04-17T11:59:34.752Z,96709.40
2023-04-17T12:02:04.430Z,96706.21
2023-04-17T12:04:36.801Z,96702.41
2023-04-17T12:07:06.533Z,96702.25
2023-04-17T12:09:35.053Z,96702.20
2023-04-17T12:12:07.205Z,96702.60
2023-04-17T12:14:35.578Z,96704.33
2023-04-17T12:17:03.604Z,96699.56
2023-04-17T12:19:32.209Z,96697.06
2023-04-17T12:22:01.027Z,96700.85
2023-04-17T12:24:29.114Z,96699.09
2023-04-17T12:26:58.794Z,96694.34
2023-04-17T12:29:40.458Z,96690.63
2023-04-17T12:32:11.138Z,96687.41
2023-04-17T12:34:39.453Z,96682.91
2023-04-17T12:37:07.510Z,96675.69
2023-04-17T12:39:35.691Z,96671.45
2023-04-17T12:42:03.878Z,96668.50
2023-04-17T12:44:31.828Z,96667.98
2023-04-17T12:46:59.807Z,96669.13
2023-04-17T12:49:27.887Z,96663.44
2023-04-17T12:51:56.226Z,96664.27
2023-04-17T12:54:24.343Z,96665.20
2023-04-17T12:56:52.417Z,96656.14
2023-04-17T12:59:20.496Z,96656.92
2023-04-17T13:01:48.518Z,96652.52
2023-04-17T13:04:17.181Z,96652.66
2023-04-17T13:06:45.644Z,96652.77
2023-04-17T13:09:14.143Z,96655.67
2023-04-17T13:11:42.418Z,96650.20
2023-04-17T13:14:10.763Z,96645.98
2023-04-17T13:16:39.114Z,96653.23
2023-04-17T13:19:07.459Z,96650.92
2023-04-17T13:21:35.429Z,96651.23
2023-04-17T13:24:03.611Z,96651.23
2023-04-17T13:26:31.837Z,96649.09
2023-04-17T13:29:00.086Z,96648.54
2023-04-17T13:31:28.478Z,96645.20
2023-04-17T13:33:56.535Z,96644.52
2023-04-17T13:36:24.608Z,96647.80
2023-04-17T13:38:52.592Z,96640.70
2023-04-17T13:41:21.382Z,96642.12
2023-04-17T13:43:49.348Z,96644.40
2023-04-17T13:46:18.062Z,96640.23
2023-04-17T13:48:46.534Z,96642.14
2023-04-17T13:51:14.704Z,96643.21
2023-04-17T13:53:42.990Z,96642.86
2023-04-17T13:56:11.166Z,96645.54
2023-04-17T13:58:40.675Z,96640.90
2023-04-17T14:01:11.886Z,96643.54
2023-04-17T14:03:43.034Z,96644.98
2023-04-17T14:06:13.298Z,96648.30
2023-04-17T14:08:43.589Z,96651.10
2023-04-17T14:11:13.373Z,96655.87
2023-04-17T14:13:41.419Z,96655.23
2023-04-17T14:16:09.634Z,96667.13
2023-04-17T14:18:37.683Z,96677.91
2023-04-17T14:21:05.746Z,96696.70
2023-04-17T14:23:33.824Z,96697.63
2023-04-17T14:26:01.804Z,96705.89
2023-04-17T14:28:29.976Z,96707.40
2023-04-17T14:30:58.292Z,96709.96
2023-04-17T14:33:26.333Z,96710.38
2023-04-17T14:35:56.863Z,96712.56
2023-04-17T14:38:25.665Z,96717.39
2023-04-17T14:40:53.941Z,96715.23
2023-04-17T14:43:22.119Z,96717.42
2023-04-17T14:45:51.517Z,96716.81
2023-04-17T14:48:23.910Z,96717.68
2023-04-17T14:50:52.072Z,96713.25
2023-04-17T14:53:21.622Z,96712.66
2023-04-17T14:55:50.140Z,96715.37
2023-04-17T14:58:18.179Z,96713.05
2023-04-17T15:00:46.214Z,96717.54
2023-04-17T15:03:14.536Z,96714.83
2023-04-17T15:05:42.791Z,96723.41
2023-04-17T15:08:11.068Z,96719.96
2023-04-17T15:10:50.672Z,96720.66
2023-04-17T15:13:20.015Z,96717.67
2023-04-17T15:15:48.290Z,96719.68
2023-04-17T15:18:16.473Z,96720.96
2023-04-17T15:20:44.866Z,96717.22
2023-04-17T15:23:13.236Z,96723.73
2023-04-17T15:25:42.057Z,96717.45
2023-04-17T15:28:10.215Z,96717.60
2023-04-17T15:30:38.648Z,96713.45
2023-04-17T15:33:08.449Z,96716.05
2023-04-17T15:35:38.674Z,96715.67
2023-04-17T15:38:07.334Z,96717.74
2023-04-17T15:40:35.313Z,96722.36
2023-04-17T15:43:03.802Z,96728.15
2023-04-17T15:45:32.020Z,96728.73
2023-04-17T15:48:01.162Z,96733.65
2023-04-17T15:50:29.463Z,96732.88
2023-04-17T15:52:57.726Z,96746.16
2023-04-17T15:55:26.047Z,96746.20
2023-04-17T15:57:54.090Z,96749.23
2023-04-17T16:00:22.169Z,96745.95
2023-04-17T16:02:52.046Z,96745.12
2023-04-17T16:05:21.090Z,96747.64
2023-04-17T16:07:49.253Z,96751.19
2023-04-17T16:10:19.128Z,96758.14
2023-04-17T16:12:47.378Z,96758.95
2023-04-17T16:15:16.773Z,96758.95
2023-04-17T16:17:45.835Z,96765.92
2023-04-17T16:20:14.550Z,96767.12
2023-04-17T16:22:42.962Z,96762.58
2023-04-17T16:25:12.408Z,96769.64
2023-04-17T16:27:40.750Z,96769.05
2023-04-17T16:30:09.830Z,96769.70
2023-04-17T16:32:38.271Z,96777.70
2023-04-17T16:35:07.404Z,96783.86
2023-04-17T16:37:35.487Z,96785.19
2023-04-17T16:40:05.289Z,96782.95
2023-04-17T16:42:33.625Z,96784.09
2023-04-17T16:45:01.865Z,96783.93
2023-04-17T16:47:30.122Z,96782.98
2023-04-17T16:49:58.507Z,96781.74
2023-04-17T16:52:26.702Z,96781.95
2023-04-17T16:54:54.700Z,96784.34
2023-04-17T16:57:22.663Z,96789.52
2023-04-17T16:59:50.691Z,96788.19
2023-04-17T17:02:18.788Z,96788.38
2023-04-17T17:04:47.031Z,96791.14
2023-04-17T17:07:15.173Z,96792.39
2023-04-17T17:09:43.156Z,96793.28
2023-04-17T17:12:11.427Z,96794.15
2023-04-17T17:14:39.395Z,96793.64
2023-04-17T17:17:07.985Z,96796.58
2023-04-17T17:19:36.262Z,96796.92
2023-04-17T17:22:04.444Z,96800.66
2023-04-17T17:24:32.526Z,96801.05
2023-04-17T17:27:00.910Z,96802.56
2023-04-17T17:29:28.878Z,96805.54
2023-04-17T17:31:57.181Z,96803.97
2023-04-17T17:34:27.062Z,96806.95
2023-04-17T17:36:58.328Z,96807.02
2023-04-17T17:39:26.510Z,96810.29
2023-04-17T17:41:56.119Z,96810.64
2023-04-17T17:44:24.208Z,96815.77
2023-04-17T17:46:52.161Z,96813.30
2023-04-17T17:49:20.248Z,96818.11
2023-04-17T17:51:50.679Z,96815.14
2023-04-17T17:54:18.657Z,96819.34
2023-04-17T17:56:46.927Z,96823.59
2023-04-17T17:59:14.916Z,96824.35
2023-04-17T18:01:42.906Z,96822.15
2023-04-17T18:04:11.587Z,96826.64
2023-04-17T18:06:41.187Z,96832.58
2023-04-17T18:09:12.342Z,96830.91
2023-04-17T18:11:40.311Z,96833.99
2023-04-17T18:14:08.685Z,96834.48
2023-04-17T18:16:37.697Z,96836.21
2023-04-17T18:19:06.879Z,96836.29
2023-04-17T18:21:34.991Z,96839.81
2023-04-17T18:24:03.045Z,96837.26
2023-04-17T18:26:31.700Z,96839.76
2023-04-17T18:29:00.026Z,96843.15
2023-04-17T18:31:28.640Z,96847.08
2023-04-17T18:33:57.087Z,96845.60
2023-04-17T18:36:25.065Z,96847.66
2023-04-17T18:38:53.134Z,96850.25
2023-04-17T18:41:21.696Z,96849.69
2023-04-17T18:43:50.024Z,96847.91
2023-04-17T18:46:18.822Z,96851.99
2023-04-17T18:48:46.980Z,96850.46
2023-04-17T18:51:15.164Z,96852.53
2023-04-17T18:53:44.127Z,96851.65
2023-04-17T18:56:13.795Z,96855.46
2023-04-17T18:58:42.102Z,96858.52
2023-04-17T19:01:10.819Z,96856.79
2023-04-17T19:03:39.334Z,96861.77
2023-04-17T19:06:07.246Z,96855.35
2023-04-17T19:08:35.582Z,96859.16
2023-04-17T19:11:03.662Z,96860.00
2023-04-17T19:13:32.137Z,96863.16
2023-04-17T19:16:00.364Z,96861.46
2023-04-17T19:18:29.434Z,96866.00
2023-04-17T19:20:58.936Z,96862.11
2023-04-17T19:23:29.254Z,96863.02
2023-04-17T19:25:58.047Z,96866.88
2023-04-17T19:28:27.528Z,96868.48
2023-04-17T19:30:56.349Z,96869.73
2023-04-17T19:33:24.336Z,96868.25
2023-04-17T19:35:52.521Z,96865.55
2023-04-17T19:38:20.587Z,96872.75
2023-04-17T19:41:08.513Z,96874.00
2023-04-17T19:43:36.587Z,96872.95
2023-04-17T19:46:04.692Z,96875.42
2023-04-17T19:48:33.044Z,96873.05
2023-04-17T19:51:02.967Z,96872.08
2023-04-17T19:53:32.261Z,96873.50
2023-04-17T19:56:00.241Z,96875.17
2023-04-17T19:58:29.132Z,96876.20
2023-04-17T20:01:00.492Z,96876.80
2023-04-17T20:03:29.696Z,96873.30
2023-04-17T20:05:58.593Z,96866.15
2023-04-17T20:08:26.872Z,96866.56
2023-04-17T20:10:55.086Z,96867.83
2023-04-17T20:13:23.112Z,96867.02
2023-04-17T20:15:51.294Z,96869.72
2023-04-17T20:18:19.490Z,96866.52
2023-04-17T20:20:47.549Z,96870.09
2023-04-17T20:23:15.468Z,96870.19
2023-04-17T20:25:43.807Z,96867.77
2023-04-17T20:28:11.879Z,96870.16
2023-04-17T20:30:39.968Z,96869.99
2023-04-17T20:33:08.107Z,96869.90
2023-04-17T20:35:36.302Z,96872.70
2023-04-17T20:38:04.739Z,96874.16
2023-04-17T20:40:32.681Z,96879.08
2023-04-17T20:43:00.659Z,96878.10
2023-04-17T20:45:28.728Z,96877.64
2023-04-17T20:47:57.366Z,96881.33
2023-04-17T20:50:25.839Z,96880.30
2023-04-17T20:52:53.880Z,96884.32
2023-04-17T20:55:21.954Z,96882.75
2023-04-17T20:57:50.546Z,96886.45
2023-04-17T21:00:18.922Z,96883.67
2023-04-17T21:02:47.027Z,96883.88
2023-04-17T21:05:15.589Z,96887.45
2023-04-17T21:07:43.667Z,96885.44
2023-04-17T21:10:11.655Z,96883.61
2023-04-17T21:12:39.814Z,96884.64
2023-04-17T21:15:09.644Z,96887.47
2023-04-17T21:17:37.894Z,96891.15
2023-04-17T21:20:06.400Z,96889.10
2023-04-17T21:22:34.497Z,96891.36
2023-04-17T21:25:02.449Z,96888.52
2023-04-17T21:27:30.938Z,96886.92
2023-04-17T21:29:59.015Z,96889.02
2023-04-17T21:32:27.032Z,96888.45
2023-04-17T21:34:54.933Z,96889.82
2023-04-17T21:37:22.836Z,96890.73
2023-04-17T21:39:51.024Z,96892.42
2023-04-17T21:42:18.996Z,96889.50
2023-04-17T21:44:47.067Z,96889.02
2023-04-17T21:47:16.678Z,96888.67
2023-04-17T21:49:45.935Z,96890.38
2023-04-17T21:52:14.564Z,96888.96
2023-04-17T21:54:43.681Z,96889.29
2023-04-17T21:57:11.750Z,96890.44
2023-04-17T21:59:40.144Z,96892.27
2023-04-17T22:02:08.245Z,96890.14
2023-04-17T22:04:36.436Z,96889.85
2023-04-17T22:07:04.675Z,96885.42
2023-04-17T22:09:32.747Z,96888.59
2023-04-17T22:12:09.728Z,96887.64
2023-04-17T22:14:37.711Z,96888.56
2023-04-17T22:17:05.858Z,96888.80
2023-04-17T22:19:33.968Z,96889.92
2023-04-17T22:22:02.038Z,96892.09
2023-04-17T22:24:30.123Z,96892.33
2023-04-17T22:26:58.100Z,96894.95
2023-04-17T22:29:26.070Z,96895.21
2023-04-17T22:31:54.035Z,96890.92
2023-04-17T22:34:22.003Z,96891.73
2023-04-17T22:36:50.193Z,96893.01
2023-04-17T22:39:18.260Z,96897.23
2023-04-17T22:41:46.335Z,96897.79
2023-04-17T22:44:14.671Z,96901.30
2023-04-17T22:46:43.051Z,96898.35
2023-04-17T22:49:11.304Z,96898.95
2023-04-17T22:51:39.365Z,96897.63
2023-04-17T22:54:19.048Z,96893.55
2023-04-17T22:56:49.939Z,96897.64
2023-04-17T22:59:18.016Z,96899.30
2023-04-17T23:01:46.270Z,96892.43
2023-04-17T23:04:14.691Z,96891.63
2023-04-17T23:06:43.271Z,96895.02
2023-04-17T23:09:11.496Z,96897.34
2023-04-17T23:11:39.429Z,96894.17
2023-04-17T23:14:07.512Z,96895.96
2023-04-17T23:16:35.729Z,96897.27
2023-04-17T23:19:03.774Z,96898.16
2023-04-17T23:21:31.940Z,96895.42
2023-04-17T23:24:00.104Z,96898.64
2023-04-17T23:26:28.301Z,96898.35
2023-04-17T23:28:56.370Z,96897.06
2023-04-17T23:31:24.656Z,96898.36
2023-04-17T23:33:52.712Z,96901.47
2023-04-17T23:36:20.807Z,96896.17
2023-04-17T23:38:49.079Z,96898.49
2023-04-17T23:41:17.168Z,96896.13
2023-04-17T23:43:45.239Z,96896.00
2023-04-17T23:46:13.364Z,96898.08
2023-04-17T23:48:41.584Z,96902.95
2023-04-17T23:51:09.603Z,96902.20
2023-04-17T23:53:37.591Z,96900.05
2023-04-17T23:56:05.742Z,96901.71
2023-04-17T23:58:33.696Z,96899.15
